Latest Weather Observations for Pirlangimpi

IDD60901

Issued at 11:11 pm CST Monday 26 June 2017 (issued every 10 minutes, with the page automatically refreshed every 10 minutes)

About weather observations | Map of Darwin area stations | Latest observations for Darwin area | Other Formats
Station Details ID: 014142 Name: PIRLANGIMPI AIRPORT Lat: -11.40 Lon: 130.42 Height: 18.3 m
Data from the previous 72 hours. | See also: Recent months at Pirlangimpi
Date/Time
CST
Temp
°C
App
Temp
°C
Dew
Point
°C
Rel
Hum
%
Delta-T
°C
Wind Press
QNH
hPa
Press
MSL
hPa
Rain since
9am
mm
Dir  Spd
km/h
Gust
km/h
Spd
kts
Gust
kts
26/11:00pm 20.3 23.2 18.1 87 1.4 CALM 0 2 0 1 1014.3 1014.2 0.0
26/10:30pm 20.9 23.8 18.3 85 1.6 CALM 0 0 0 0 1014.6 1014.5 0.0
26/10:00pm 21.4 24.4 18.4 83 1.9 CALM 0 0 0 0 1014.5 1014.4 0.0
26/09:30pm 21.7 24.6 18.3 81 2.1 CALM 0 0 0 0 1014.4 1014.3 0.0
26/09:00pm 22.1 25.1 18.5 80 2.3 CALM 0 2 0 1 1014.1 1014.0 0.0
26/08:30pm 22.4 24.6 18.4 78 2.5 NE 4 4 2 2 1013.6 1013.5 0.0
26/08:00pm 22.8 25.7 18.3 76 2.8 CALM 0 0 0 0 1013.3 1013.2 0.0
26/07:30pm 23.4 26.0 18.3 73 3.2 NE 2 2 1 1 1012.9 1012.8 0.0
26/07:00pm 24.1 27.0 18.3 70 3.7 CALM 0 2 0 1 1012.5 1012.4 0.0
26/06:30pm 25.6 28.4 18.0 63 4.8 CALM 0 0 0 0 1012.2 1012.1 0.0
26/06:00pm 26.9 28.8 17.7 57 5.8 NNE 4 7 2 4 1011.9 1011.8 0.0
26/05:30pm 27.8 28.8 16.4 50 7.1 NNE 6 11 3 6 1011.6 1011.5 0.0
26/05:00pm 28.9 29.6 16.1 46 7.9 NNE 7 15 4 8 1011.4 1011.3 0.0
26/04:30pm 30.2 31.6 17.3 46 8.2 N 6 13 3 7 1011.1 1011.0 0.0
26/04:00pm 31.4 33.0 16.9 41 9.2 NE 4 9 2 5 1011.3 1011.2 0.0
26/03:30pm 31.1 32.1 16.3 41 9.3 ENE 6 13 3 7 1011.3 1011.2 0.0
26/03:00pm 31.1 31.7 15.9 40 9.5 ENE 7 13 4 7 1011.4 1011.3 0.0
26/02:30pm 30.6 31.7 17.0 44 8.6 NE 7 15 4 8 1011.7 1011.6 0.0
26/02:00pm 30.8 31.9 17.1 43 8.7 ENE 7 19 4 10 1011.8 1011.7 0.0
26/01:30pm 30.6 31.0 16.2 41 9.0 SE 9 20 5 11 1012.3 1012.2 0.0
26/01:00pm 31.2 31.8 16.8 42 9.1 ENE 9 19 5 10 1012.6 1012.5 0.0
26/12:30pm 30.4 31.0 16.8 44 8.6 E 9 17 5 9 1013.1 1013.0 0.0
26/12:00pm 30.5 30.7 17.6 46 8.2 E 13 20 7 11 1013.4 1013.3 0.0
26/11:30am 29.5 29.2 17.3 47 7.7 ENE 15 20 8 11 1013.7 1013.6 0.0
26/11:00am 28.2 28.2 17.1 51 7.0 E 13 22 7 12 1014.1 1014.0 0.0
26/10:30am 28.0 28.6 19.5 60 5.5 E 15 30 8 16 1014.2 1014.1 0.0
26/10:00am 26.6 27.0 19.0 63 4.9 ESE 15 28 8 15 1014.4 1014.3 0.0
26/09:30am 25.8 27.9 19.4 67 4.1 ESE 7 15 4 8 1014.3 1014.2 0.0
26/09:00am 23.6 25.7 18.9 75 3.0 SSE 6 9 3 5 1014.4 1014.3 0.0
26/08:30am 22.2 24.4 18.4 79 2.4 SE 4 4 2 2 1014.0 1013.9 0.0
26/08:00am 20.6 23.2 18.5 88 1.3 SE 2 4 1 2 1013.7 1013.6 0.0
26/07:30am 18.1 19.6 16.6 91 0.9 SE 4 4 2 2 1013.6 1013.5 0.0
26/07:00am 18.0 19.3 16.2 89 1.1 SE 4 4 2 2 1013.3 1013.2 0.0
26/06:30am 18.7 20.5 16.5 87 1.3 SE 2 4 1 2 1013.1 1013.0 0.0
26/06:00am 19.0 20.6 17.0 88 1.2 SE 4 6 2 3 1012.9 1012.8 0.0
26/05:30am 19.0 20.8 17.3 90 1.0 SE 4 6 2 3 1012.7 1012.6 0.0
26/05:00am 18.3 19.9 16.8 91 0.9 SE 4 6 2 3 1012.5 1012.4 0.0
26/04:30am 18.1 19.6 16.6 91 0.9 SE 4 4 2 2 1012.6 1012.5 0.0
26/04:00am 18.0 19.4 16.3 90 1.0 S 4 4 2 2 1012.6 1012.5 0.0
26/03:30am 18.3 20.0 16.3 88 1.2 SE 2 2 1 1 1012.6 1012.5 0.0
26/03:00am 19.2 21.1 16.6 85 1.6 SE 2 4 1 2 1012.8 1012.7 0.0
26/02:30am 19.8 21.5 17.2 85 1.6 SE 4 6 2 3 1012.9 1012.8 0.0
26/02:00am 19.7 21.3 17.8 89 1.2 SSE 6 7 3 4 1013.1 1013.0 0.0
26/01:30am 18.6 20.5 16.8 89 1.1 SE 2 6 1 3 1013.3 1013.2 0.0
26/01:00am 18.7 21.0 16.7 88 1.2 CALM 0 0 0 0 1013.2 1013.1 0.0
26/12:30am 18.8 21.1 16.8 88 1.2 CALM 0 0 0 0 1013.0 1012.9 0.0
26/12:00am 19.1 21.5 17.1 88 1.2 CALM 0 0 0 0 1012.8 1012.7 0.0
 
Date/Time
CST
Temp
°C
App
Temp
°C
Dew
Point
°C
Rel
Hum
%
Delta-T
°C
Wind Press
QNH
hPa
Press
MSL
hPa
Rain since
9am
mm
Dir  Spd
km/h
Gust
km/h
Spd
kts
Gust
kts
25/11:30pm 19.4 21.8 17.0 86 1.5 CALM 0 0 0 0 1012.9 1012.8 0.0
25/11:00pm 19.6 21.9 16.8 84 1.7 CALM 0 0 0 0 1012.7 1012.6 0.0
25/10:30pm 19.9 22.3 16.9 83 1.8 CALM 0 0 0 0 1012.7 1012.6 0.0
25/10:00pm 20.6 23.4 18.0 85 1.6 CALM 0 4 0 2 1012.7 1012.6 0.0
25/09:30pm 20.7 22.5 17.5 82 2.0 NE 4 6 2 3 1012.5 1012.4 0.0
25/09:00pm 20.9 23.6 17.7 82 2.0 CALM 0 0 0 0 1012.3 1012.2 0.0
25/08:30pm 21.4 23.7 17.8 80 2.2 NE 2 4 1 2 1012.3 1012.2 0.0
25/08:00pm 22.0 24.1 18.0 78 2.5 NE 4 6 2 3 1012.2 1012.1 0.0
25/07:30pm 22.5 25.2 17.8 75 2.9 CALM 0 0 0 0 1012.0 1011.9 0.0
25/07:00pm 24.1 26.7 17.6 67 4.1 CALM 0 0 0 0 1011.7 1011.6 0.0
25/06:30pm 25.6 27.1 17.5 61 5.1 ENE 6 9 3 5 1011.4 1011.3 0.0
25/06:00pm 26.8 27.7 17.6 57 5.8 ENE 9 13 5 7 1011.0 1010.9 0.0
25/05:30pm 27.5 29.0 17.7 55 6.2 NNE 6 11 3 6 1010.8 1010.7 0.0
25/05:00pm 28.6 29.2 16.8 48 7.4 ENE 9 17 5 9 1010.7 1010.6 0.0
25/04:30pm 29.2 30.0 17.4 49 7.5 NNE 9 15 5 8 1010.6 1010.5 0.0
25/04:00pm 29.2 30.0 17.4 49 7.5 NNE 9 17 5 9 1010.5 1010.4 0.0
25/03:30pm 30.4 31.2 18.2 48 7.8 ENE 11 19 6 10 1010.6 1010.5 0.0
25/03:00pm 30.8 30.6 16.8 43 8.8 ENE 13 20 7 11 1010.6 1010.5 0.0
25/02:30pm 30.1 30.7 16.9 45 8.3 ENE 9 17 5 9 1010.9 1010.8 0.0
25/02:00pm 30.9 31.8 17.6 45 8.5 ENE 9 20 5 11 1011.3 1011.2 0.0
25/01:30pm 29.3 30.2 16.5 46 8.0 ESE 7 15 4 8 1011.8 1011.7 0.0
25/01:00pm 29.5 30.9 17.3 47 7.7 S 6 11 3 6 1012.2 1012.1 0.0
25/12:30pm 30.3 30.2 17.0 44 8.4 E 13 22 7 12 1012.6 1012.5 0.0
25/12:00pm 30.6 30.6 17.3 45 8.4 E 13 20 7 11 1013.0 1012.9 0.0
25/11:30am 29.5 30.6 18.0 50 7.3 E 9 17 5 9 1013.4 1013.3 0.0
25/11:00am 28.0 28.4 18.1 55 6.3 E 13 20 7 11 1013.7 1013.6 0.0
25/10:30am 27.9 29.2 19.4 60 5.5 E 11 17 6 9 1013.8 1013.7 0.0
25/10:00am 27.1 28.5 20.4 66 4.4 E 13 20 7 11 1014.0 1013.9 0.0
25/09:30am 24.6 27.1 20.3 77 2.8 SE 7 11 4 6 1014.0 1013.9 0.0
25/09:00am 23.5 25.9 20.0 81 2.3 SSE 7 9 4 5 1013.7 1013.6 0.0
25/08:30am 21.5 24.0 19.1 86 1.5 S 4 6 2 3 1013.5 1013.4 0.0
25/08:00am 20.1 22.4 18.6 91 0.9 SSE 4 4 2 2 1013.2 1013.1 0.0
25/07:30am 19.4 21.5 18.1 92 0.8 SE 4 6 2 3 1013.0 1012.9 0.0
25/07:00am 18.9 20.8 17.6 92 0.8 SE 4 6 2 3 1012.8 1012.7 0.0
25/06:30am 19.0 21.0 17.8 93 0.7 SE 4 6 2 3 1012.3 1012.2 0.0
25/06:00am 18.6 20.4 17.3 92 0.8 SE 4 4 2 2 1012.1 1012.0 0.0
25/05:30am 18.5 20.1 16.8 90 1.0 SE 4 4 2 2 1012.1 1012.0 0.0
25/05:00am 18.8 20.4 16.8 88 1.2 SE 4 6 2 3 1012.2 1012.1 0.0
25/04:30am 19.1 20.7 16.9 87 1.3 SE 4 6 2 3 1012.1 1012.0 0.0
25/04:00am 19.1 20.8 17.1 88 1.2 SSE 4 6 2 3 1011.9 1011.8 0.0
25/03:30am 19.4 20.9 17.7 90 1.0 SE 6 7 3 4 1012.0 1011.9 0.0
25/03:00am 19.5 21.3 18.2 92 0.8 SSE 6 7 3 4 1012.0 1011.9 0.0
25/02:30am 18.1 20.1 15.9 87 1.3 CALM 0 0 0 0 1011.9 1011.8 0.0
25/02:00am 17.9 19.6 15.3 85 1.5 CALM 0 4 0 2 1012.0 1011.9 0.0
25/01:30am 18.0 19.7 15.3 84 1.6 CALM 0 0 0 0 1012.1 1012.0 0.0
25/01:00am 18.2 19.9 15.1 82 1.8 CALM 0 0 0 0 1012.3 1012.2 0.0
25/12:30am 18.3 19.9 14.8 80 2.0 CALM 0 0 0 0 1012.2 1012.1 0.0
25/12:00am 18.8 20.4 14.9 78 2.3 CALM 0 0 0 0 1012.2 1012.1 0.0
 
Date/Time
CST
Temp
°C
App
Temp
°C
Dew
Point
°C
Rel
Hum
%
Delta-T
°C
Wind Press
QNH
hPa
Press
MSL
hPa
Rain since
9am
mm
Dir  Spd
km/h
Gust
km/h
Spd
kts
Gust
kts
24/11:30pm 18.9 20.5 15.0 78 2.3 CALM 0 0 0 0 1012.1 1012.0 0.0
24/11:00pm 19.2 20.8 14.9 76 2.5 CALM 0 2 0 1 1012.0 1011.9 0.0
24/10:30pm 20.7 21.4 15.5 72 3.1 NE 6 11 3 6 1012.0 1011.9 0.0
24/10:00pm 19.2 20.9 15.3 78 2.3 CALM 0 0 0 0 1011.9 1011.8 0.0
24/09:30pm 19.6 20.7 14.6 73 2.9 ENE 2 4 1 2 1011.7 1011.6 0.0
24/09:00pm 19.9 21.3 14.5 71 3.1 CALM 0 0 0 0 1011.3 1011.2 0.0
24/08:30pm 20.7 21.7 14.4 67 3.7 NE 2 4 1 2 1011.2 1011.1 0.0
24/08:00pm 21.3 21.9 14.2 64 4.1 ENE 4 6 2 3 1010.8 1010.7 0.0
24/07:30pm 22.1 22.5 13.7 59 4.9 NE 4 6 2 3 1010.4 1010.3 0.0
24/07:00pm 24.0 24.0 13.5 52 6.1 ENE 6 7 3 4 1010.3 1010.2 0.0
24/06:30pm 25.9 25.8 13.4 46 7.3 E 6 9 3 5 1010.2 1010.1 0.0
24/06:00pm 27.2 27.2 13.5 42 8.1 E 6 9 3 5 1009.7 1009.6 0.0
24/05:30pm 28.2 27.5 13.3 40 8.8 E 9 13 5 7 1009.4 1009.3 0.0
24/05:00pm 29.2 28.2 13.4 38 9.4 E 11 19 6 10 1009.3 1009.2 0.0
24/04:30pm 30.5 29.6 13.7 35 10.1 ESE 11 20 6 11 1009.2 1009.1 0.0
24/04:00pm 31.0 30.5 15.0 38 9.8 ENE 11 20 6 11 1009.2 1009.1 0.0
24/03:30pm 31.0 31.2 17.7 45 8.5 ENE 13 20 7 11 1009.5 1009.4 0.0
24/03:00pm 30.7 30.9 17.7 45 8.3 ENE 13 19 7 10 1009.8 1009.7 0.0
24/02:30pm 31.5 32.5 17.8 44 8.8 ENE 9 17 5 9 1009.9 1009.8 0.0
24/02:00pm 30.7 32.2 18.8 49 7.7 ENE 9 20 5 11 1010.4 1010.3 0.0
24/01:30pm 32.0 33.4 18.6 45 8.7 E 9 19 5 10 1011.1 1011.0 0.0
24/01:00pm 31.0 31.4 19.0 48 7.8 E 15 24 8 13 1011.6 1011.5 0.0
24/12:30pm 30.2 30.9 18.9 50 7.3 E 13 24 7 13 1012.1 1012.0 0.0
24/12:00pm 29.9 30.7 19.0 52 7.1 ENE 13 24 7 13 1012.6 1012.5 0.0
24/11:30am 29.8 30.3 19.2 53 6.9 E 15 26 8 14 1013.1 1013.0 0.0
24/11:00am 28.8 29.5 18.9 55 6.4 E 13 24 7 13 1013.5 1013.4 0.0
24/10:30am 27.8 28.9 19.6 61 5.3 ESE 13 20 7 11 1013.7 1013.6 0.0
24/10:00am 27.1 28.0 20.0 65 4.6 E 15 24 8 13 1014.0 1013.9 0.0
24/09:30am 26.1 28.3 21.1 74 3.3 ESE 11 17 6 9 1014.1 1014.0 0.0
24/09:00am 24.7 27.9 21.6 83 2.1 ESE 7 13 4 7 1013.8 1013.7 0.0
24/08:30am 23.9 27.3 21.6 87 1.5 ESE 6 11 3 6 1013.4 1013.3 0.0
24/08:00am 23.0 26.1 21.1 89 1.2 ESE 6 9 3 5 1013.0 1012.9 0.0
24/07:30am 21.9 25.1 20.5 92 0.9 E 4 7 2 4 1012.6 1012.5 0.0
24/07:00am 21.7 24.3 20.0 90 1.1 E 6 9 3 5 1012.3 1012.2 0.0
24/06:30am 21.6 24.2 20.1 91 1.0 E 6 7 3 4 1012.0 1011.9 0.0
24/06:00am 21.5 24.1 20.0 91 1.0 ESE 6 7 3 4 1011.8 1011.7 0.0
24/05:30am 21.4 24.0 20.0 92 0.9 ESE 6 7 3 4 1011.8 1011.7 0.0
24/05:00am 21.2 24.2 20.0 93 0.8 SE 4 6 2 3 1011.7 1011.6 0.0
24/04:30am 21.1 24.0 19.9 93 0.8 SSE 4 6 2 3 1011.7 1011.6 0.0
24/04:00am 21.3 24.3 20.1 93 0.8 SSE 4 4 2 2 1011.7 1011.6 0.0
24/03:30am 21.8 25.0 20.6 93 0.8 SE 4 6 2 3 1011.8 1011.7 0.0
24/03:00am 21.8 25.0 20.6 93 0.8 SSE 4 6 2 3 1012.0 1011.9 0.0
24/02:30am 21.6 24.5 20.6 94 0.6 SSE 6 6 3 3 1012.0 1011.9 0.0
24/02:00am 21.3 24.9 19.8 91 1.0 CALM 0 0 0 0 1012.2 1012.1 0.0
24/01:30am 21.9 25.8 20.4 91 1.0 CALM 0 2 0 1 1012.2 1012.1 0.0
24/01:00am 22.2 25.9 20.8 92 0.9 NE 2 4 1 2 1012.4 1012.3 0.0
24/12:30am 22.0 26.0 20.5 91 1.0 CALM 0 0 0 0 1012.6 1012.5 0.0
24/12:00am 22.1 26.2 20.7 92 0.9 CALM 0 0 0 0 1012.7 1012.6 0.0
 
Date/Time
CST
Temp
°C
App
Temp
°C
Dew
Point
°C
Rel
Hum
%
Delta-T
°C
Wind Press
QNH
hPa
Press
MSL
hPa
Rain since
9am
mm
Dir  Spd
km/h
Gust
km/h
Spd
kts
Gust
kts
23/11:30pm 22.2 26.2 20.5 90 1.1 CALM 0 0 0 0 1012.7 1012.6 0.0

Latest Capital City Observations: Canberra | Sydney | Melbourne | Brisbane | Adelaide | Perth | Hobart | Darwin

Other Formats:

Comma delimited format used in spreadsheet applications
http://www.bom.gov.au/fwo/IDD60901/IDD60901.94119.axf

JavaScript Object Notation format (JSON) in row-major order
http://www.bom.gov.au/fwo/IDD60901/IDD60901.94119.json